createdAt,value
2023-11-01T00:01:43.000Z,11.40
2023-11-01T00:04:09.777Z,11.50
2023-11-01T00:06:36.524Z,11.60
2023-11-01T00:09:03.265Z,11.70
2023-11-01T00:11:30.157Z,11.90
2023-11-01T00:13:56.885Z,11.80
2023-11-01T00:16:23.734Z,11.80
2023-11-01T00:18:50.419Z,11.50
2023-11-01T00:21:17.148Z,11.60
2023-11-01T00:23:43.894Z,11.50
2023-11-01T00:26:10.785Z,11.60
2023-11-01T00:28:37.596Z,11.80
2023-11-01T00:31:05.192Z,11.90
2023-11-01T00:33:32.010Z,11.60
2023-11-01T00:35:58.841Z,11.80
2023-11-01T00:38:25.566Z,11.50
2023-11-01T00:40:52.473Z,11.40
2023-11-01T00:43:19.365Z,11.50
2023-11-01T00:45:46.262Z,11.60
2023-11-01T00:48:13.082Z,11.50
2023-11-01T00:50:39.940Z,11.60
2023-11-01T00:53:06.713Z,11.50
2023-11-01T00:55:33.403Z,11.40
2023-11-01T00:58:00.111Z,11.80
2023-11-01T01:00:26.955Z,11.90
2023-11-01T01:02:53.789Z,11.90
2023-11-01T01:05:20.713Z,12.10
2023-11-01T01:07:47.607Z,11.90
2023-11-01T01:10:15.353Z,12.00
2023-11-01T01:12:42.069Z,11.90
2023-11-01T01:15:09.192Z,12.90
2023-11-01T01:17:36.142Z,12.70
2023-11-01T01:20:03.600Z,12.50
2023-11-01T01:22:30.367Z,12.10
2023-11-01T01:24:57.116Z,12.50
2023-11-01T01:27:23.764Z,12.20
2023-11-01T01:29:50.422Z,12.30
2023-11-01T01:32:17.159Z,12.40
2023-11-01T01:34:43.840Z,12.00
2023-11-01T01:37:10.511Z,12.80
2023-11-01T01:39:37.161Z,12.00
2023-11-01T01:42:03.973Z,12.30
2023-11-01T01:44:30.715Z,12.80
2023-11-01T01:46:57.824Z,12.80
2023-11-01T01:49:32.853Z,12.30
2023-11-01T01:52:04.578Z,13.40
2023-11-01T01:54:32.398Z,13.10
2023-11-01T01:56:59.437Z,12.40
2023-11-01T01:59:26.960Z,12.40
2023-11-01T02:01:56.465Z,12.40
2023-11-01T02:04:25.998Z,12.80
2023-11-01T02:06:53.712Z,12.50
2023-11-01T02:09:20.644Z,13.00
2023-11-01T02:11:47.462Z,13.30
2023-11-01T02:14:14.757Z,12.70
2023-11-01T02:16:41.631Z,13.00
2023-11-01T02:19:09.924Z,12.70
2023-11-01T02:21:37.219Z,12.50
2023-11-01T02:24:04.531Z,12.30
2023-11-01T02:26:31.625Z,12.30
2023-11-01T02:28:58.519Z,12.00
2023-11-01T02:31:25.245Z,12.10
2023-11-01T02:33:52.009Z,12.30
2023-11-01T02:36:18.682Z,11.90
2023-11-01T02:38:45.366Z,12.40
2023-11-01T02:41:12.767Z,12.20
2023-11-01T02:43:39.458Z,12.00
2023-11-01T02:46:06.211Z,12.20
2023-11-01T02:48:32.934Z,12.40
2023-11-01T02:50:59.593Z,12.60
2023-11-01T02:53:26.423Z,12.10
2023-11-01T02:55:53.250Z,12.10
2023-11-01T02:58:20.041Z,12.40
2023-11-01T03:00:46.842Z,12.00
2023-11-01T03:03:13.602Z,12.40
2023-11-01T03:05:40.350Z,12.20
2023-11-01T03:08:07.131Z,12.00
2023-11-01T03:10:33.868Z,11.90
2023-11-01T03:13:00.591Z,11.80
2023-11-01T03:15:27.373Z,11.80
2023-11-01T03:17:54.102Z,11.80
2023-11-01T03:20:20.922Z,11.70
2023-11-01T03:22:47.608Z,11.70
2023-11-01T03:25:15.452Z,11.60
2023-11-01T03:27:42.110Z,11.60
2023-11-01T03:30:09.213Z,11.60
2023-11-01T03:32:37.058Z,11.60
2023-11-01T03:35:04.035Z,11.50
2023-11-01T03:37:30.847Z,11.50
2023-11-01T03:39:57.589Z,11.50
2023-11-01T03:42:24.255Z,11.50
2023-11-01T03:44:51.121Z,11.60
2023-11-01T03:47:18.106Z,11.60
2023-11-01T03:49:45.898Z,11.50
2023-11-01T03:52:12.814Z,11.50
2023-11-01T03:54:39.501Z,11.50
2023-11-01T03:57:06.397Z,11.50
2023-11-01T03:59:33.689Z,11.70
2023-11-01T04:02:01.021Z,11.50
2023-11-01T04:04:28.268Z,11.50
2023-11-01T04:06:55.004Z,11.60
2023-11-01T04:09:21.714Z,11.50
2023-11-01T04:11:48.445Z,11.60
2023-11-01T04:14:18.133Z,12.10
2023-11-01T04:16:44.930Z,11.60
2023-11-01T04:19:12.443Z,11.90
2023-11-01T04:21:39.794Z,12.50
2023-11-01T04:24:06.798Z,12.00
2023-11-01T04:26:34.858Z,11.70
2023-11-01T04:29:01.669Z,11.70
2023-11-01T04:31:28.768Z,11.80
2023-11-01T04:33:55.801Z,11.80
2023-11-01T04:36:28.387Z,12.10
2023-11-01T04:38:56.444Z,12.10
2023-11-01T04:41:28.576Z,12.00
2023-11-01T04:43:56.077Z,11.90
2023-11-01T04:46:22.934Z,11.90
2023-11-01T04:48:50.949Z,12.10
2023-11-01T04:51:17.983Z,12.10
2023-11-01T04:53:45.476Z,11.90
2023-11-01T04:56:12.242Z,12.00
2023-11-01T04:58:39.097Z,11.90
2023-11-01T05:01:07.352Z,12.30
2023-11-01T05:03:36.408Z,12.00
2023-11-01T05:06:03.767Z,12.00
2023-11-01T05:08:30.553Z,12.10
2023-11-01T05:10:57.543Z,12.00
2023-11-01T05:13:24.290Z,12.40
2023-11-01T05:15:52.907Z,12.70
2023-11-01T05:18:19.958Z,12.30
2023-11-01T05:20:47.216Z,12.60
2023-11-01T05:23:13.960Z,12.60
2023-11-01T05:25:41.648Z,12.20
2023-11-01T05:28:08.553Z,12.40
2023-11-01T05:30:35.482Z,12.20
2023-11-01T05:33:02.425Z,12.40
2023-11-01T05:35:29.271Z,12.30
2023-11-01T05:37:55.966Z,12.30
2023-11-01T05:40:22.892Z,12.40
2023-11-01T05:42:49.790Z,12.40
2023-11-01T05:45:21.595Z,12.70
2023-11-01T05:47:53.293Z,12.70
2023-11-01T05:50:24.734Z,12.60
2023-11-01T05:52:53.104Z,12.50
2023-11-01T05:55:26.311Z,12.80
2023-11-01T05:58:00.796Z,13.00
2023-11-01T06:00:27.659Z,12.90
2023-11-01T06:02:54.628Z,13.00
2023-11-01T06:05:23.744Z,12.80
2023-11-01T06:07:51.013Z,13.50
2023-11-01T06:10:17.887Z,13.30
2023-11-01T06:12:45.166Z,13.50
2023-11-01T06:15:12.878Z,13.50
2023-11-01T06:17:39.961Z,13.80
2023-11-01T06:20:07.516Z,13.30
2023-11-01T06:22:34.694Z,13.30
2023-11-01T06:25:02.430Z,13.50
2023-11-01T06:27:29.550Z,13.50
2023-11-01T06:29:56.735Z,13.60
2023-11-01T06:32:23.586Z,13.90
2023-11-01T06:34:50.348Z,13.50
2023-11-01T06:37:17.082Z,13.60
2023-11-01T06:39:43.944Z,13.90
2023-11-01T06:42:10.761Z,13.80
2023-11-01T06:44:37.644Z,13.50
2023-11-01T06:47:04.718Z,13.50
2023-11-01T06:49:32.604Z,13.90
2023-11-01T06:51:59.746Z,14.00
2023-11-01T06:54:29.727Z,14.50
2023-11-01T06:56:57.602Z,14.60
2023-11-01T06:59:24.574Z,15.00
2023-11-01T07:01:52.618Z,14.70
2023-11-01T07:04:19.419Z,14.90
2023-11-01T07:06:46.184Z,15.20
2023-11-01T07:09:12.933Z,15.00
2023-11-01T07:11:40.565Z,14.60
2023-11-01T07:14:07.361Z,15.10
2023-11-01T07:16:37.027Z,14.80
2023-11-01T07:19:03.826Z,15.10
2023-11-01T07:21:30.501Z,15.20
2023-11-01T07:23:57.320Z,15.20
2023-11-01T07:26:24.138Z,15.50
2023-11-01T07:28:50.889Z,15.10
2023-11-01T07:31:17.688Z,15.10
2023-11-01T07:33:44.930Z,14.90
2023-11-01T07:36:12.125Z,14.70
2023-11-01T07:38:41.509Z,14.70
2023-11-01T07:41:10.019Z,14.60
2023-11-01T07:43:36.798Z,15.00
2023-11-01T07:46:03.786Z,14.20
2023-11-01T07:48:30.760Z,14.20
2023-11-01T07:50:57.617Z,13.80
2023-11-01T07:53:24.321Z,14.30
2023-11-01T07:55:54.495Z,14.30
2023-11-01T07:58:21.451Z,14.40
2023-11-01T08:00:48.251Z,14.10
2023-11-01T08:03:15.104Z,14.30
2023-11-01T08:05:42.066Z,14.40
2023-11-01T08:08:09.078Z,14.20
2023-11-01T08:10:35.811Z,14.30
2023-11-01T08:13:02.580Z,14.00
2023-11-01T08:15:33.517Z,14.40
2023-11-01T08:18:03.818Z,14.10
2023-11-01T08:20:33.321Z,14.50
2023-11-01T08:23:00.322Z,14.60
2023-11-01T08:25:27.205Z,14.60
2023-11-01T08:27:53.906Z,14.70
2023-11-01T08:30:20.961Z,14.50
2023-11-01T08:32:47.819Z,14.80
2023-11-01T08:35:14.915Z,14.60
2023-11-01T08:37:41.622Z,14.20
2023-11-01T08:40:09.180Z,14.50
2023-11-01T08:42:36.293Z,14.40
2023-11-01T08:45:03.269Z,14.40
2023-11-01T08:47:56.597Z,14.70
2023-11-01T08:50:23.489Z,14.40
2023-11-01T08:52:50.197Z,14.70
2023-11-01T08:55:27.278Z,14.70
2023-11-01T08:57:53.966Z,14.80
2023-11-01T09:00:35.203Z,15.10
2023-11-01T09:03:08.999Z,14.70
2023-11-01T09:05:35.863Z,14.60
2023-11-01T09:08:02.628Z,15.10
2023-11-01T09:10:29.383Z,15.30
2023-11-01T09:12:56.088Z,14.90
2023-11-01T09:15:23.002Z,14.90
2023-11-01T09:17:49.902Z,14.80
2023-11-01T09:20:16.633Z,15.00
2023-11-01T09:22:43.440Z,15.30
2023-11-01T09:25:10.129Z,15.30
2023-11-01T09:27:36.841Z,14.80
2023-11-01T09:30:05.865Z,15.00
2023-11-01T09:32:32.857Z,14.60
2023-11-01T09:34:59.690Z,15.00
2023-11-01T09:37:26.394Z,15.00
2023-11-01T09:39:53.060Z,15.10
2023-11-01T09:42:21.503Z,15.20
2023-11-01T09:44:56.600Z,15.20
2023-11-01T09:47:26.259Z,15.10
2023-11-01T09:49:55.538Z,15.50
2023-11-01T09:52:24.037Z,15.40
2023-11-01T09:54:51.300Z,15.40
2023-11-01T09:57:21.812Z,15.30
2023-11-01T09:59:48.808Z,15.70
2023-11-01T10:02:16.234Z,15.30
2023-11-01T10:04:43.370Z,15.50
2023-11-01T10:07:11.662Z,15.70
2023-11-01T10:09:39.652Z,15.60
2023-11-01T10:12:09.859Z,15.50
2023-11-01T10:14:38.159Z,15.70
2023-11-01T10:17:05.681Z,16.00
2023-11-01T10:19:33.636Z,15.80
2023-11-01T10:22:00.590Z,16.00
2023-11-01T10:24:28.551Z,15.40
2023-11-01T10:26:56.854Z,16.20
2023-11-01T10:29:24.759Z,15.30
2023-11-01T10:31:56.154Z,15.80
2023-11-01T10:34:32.854Z,15.30
2023-11-01T10:37:00.705Z,15.60
2023-11-01T10:39:27.842Z,15.50
2023-11-01T10:41:55.639Z,16.20
2023-11-01T10:44:23.787Z,15.80
2023-11-01T10:46:51.535Z,16.00
2023-11-01T10:49:18.336Z,15.70
2023-11-01T10:51:45.892Z,15.60
2023-11-01T10:54:13.998Z,15.90
2023-11-01T10:56:41.401Z,15.90
2023-11-01T10:59:21.896Z,15.90
2023-11-01T11:01:55.421Z,16.30
2023-11-01T11:04:31.686Z,15.90
2023-11-01T11:07:34.234Z,15.90
2023-11-01T11:10:23.562Z,15.50
2023-11-01T11:13:08.795Z,16.10
2023-11-01T11:16:08.068Z,15.60
2023-11-01T11:18:45.013Z,16.10
2023-11-01T11:21:46.758Z,16.10
2023-11-01T11:24:40.310Z,15.40
2023-11-01T11:27:27.980Z,15.70
2023-11-01T11:29:54.760Z,15.40
2023-11-01T11:32:22.581Z,15.50
2023-11-01T11:34:49.245Z,15.50
2023-11-01T11:37:18.080Z,15.30
2023-11-01T11:40:00.478Z,15.70
2023-11-01T11:42:42.293Z,15.70
2023-11-01T11:45:13.591Z,16.10
2023-11-01T11:47:40.454Z,16.30
2023-11-01T11:50:08.599Z,16.00
2023-11-01T11:52:35.348Z,15.80
2023-11-01T11:55:02.417Z,15.60
2023-11-01T11:57:30.761Z,16.30
2023-11-01T12:00:09.085Z,16.20
2023-11-01T12:02:36.255Z,15.70
2023-11-01T12:05:04.165Z,15.60
2023-11-01T12:07:31.252Z,16.50
2023-11-01T12:09:58.296Z,15.80
2023-11-01T12:12:28.033Z,15.90
2023-11-01T12:15:22.805Z,15.70
2023-11-01T12:17:49.782Z,16.30
2023-11-01T12:20:31.523Z,16.50
2023-11-01T12:23:05.664Z,16.40
2023-11-01T12:25:32.456Z,16.90
2023-11-01T12:27:59.173Z,16.60
2023-11-01T12:30:25.968Z,16.20
2023-11-01T12:32:52.738Z,16.80
2023-11-01T12:35:19.502Z,16.60
2023-11-01T12:37:46.830Z,16.70
2023-11-01T12:40:16.867Z,16.90
2023-11-01T12:42:44.483Z,16.80
2023-11-01T12:45:11.997Z,16.50
2023-11-01T12:47:53.488Z,16.80
2023-11-01T12:50:31.688Z,17.00
2023-11-01T12:52:58.905Z,17.20
2023-11-01T12:55:27.287Z,16.70
2023-11-01T12:58:01.220Z,16.50
2023-11-01T13:00:32.218Z,16.50
2023-11-01T13:03:00.539Z,16.70
2023-11-01T13:05:27.570Z,16.20
2023-11-01T13:07:59.131Z,16.60
2023-11-01T13:10:26.105Z,17.00
2023-11-01T13:12:53.220Z,16.40
2023-11-01T13:15:20.197Z,16.60
2023-11-01T13:17:48.684Z,16.80
2023-11-01T13:20:16.759Z,16.70
2023-11-01T13:22:43.517Z,16.20
2023-11-01T13:25:10.260Z,16.70
2023-11-01T13:27:37.092Z,16.80
2023-11-01T13:30:04.624Z,16.70
2023-11-01T13:32:31.554Z,16.50
2023-11-01T13:34:59.062Z,16.40
2023-11-01T13:37:25.777Z,16.40
2023-11-01T13:39:52.433Z,16.00
2023-11-01T13:42:19.276Z,16.40
2023-11-01T13:44:46.083Z,16.60
2023-11-01T13:47:13.397Z,16.70
2023-11-01T13:49:42.226Z,16.60
2023-11-01T13:52:09.009Z,16.80
2023-11-01T13:54:35.778Z,16.30
2023-11-01T13:57:04.260Z,16.40
2023-11-01T13:59:31.411Z,16.30
2023-11-01T14:01:58.251Z,16.10
2023-11-01T14:04:25.289Z,15.90
2023-11-01T14:06:52.147Z,16.40
2023-11-01T14:09:19.027Z,16.60
2023-11-01T14:11:52.729Z,16.40
2023-11-01T14:14:21.441Z,16.60
2023-11-01T14:16:48.506Z,16.10
2023-11-01T14:19:15.299Z,16.20
2023-11-01T14:21:41.974Z,15.90
2023-11-01T14:24:10.334Z,16.40
2023-11-01T14:26:38.021Z,16.30
2023-11-01T14:29:04.870Z,16.20
2023-11-01T14:31:31.562Z,16.30
2023-11-01T14:33:58.744Z,16.00
2023-11-01T14:36:25.570Z,16.20
2023-11-01T14:38:52.255Z,16.50
2023-11-01T14:41:19.009Z,16.50
2023-11-01T14:43:46.800Z,16.60
2023-11-01T14:46:14.351Z,16.10
2023-11-01T14:48:44.426Z,16.10
2023-11-01T14:51:11.433Z,16.50
2023-11-01T14:53:38.428Z,16.20
2023-11-01T14:56:16.108Z,16.00
2023-11-01T14:58:45.547Z,16.10
2023-11-01T15:01:12.397Z,15.70
2023-11-01T15:03:43.198Z,15.90
2023-11-01T15:06:10.103Z,16.20
2023-11-01T15:08:39.694Z,15.70
2023-11-01T15:11:06.430Z,16.00
2023-11-01T15:13:33.177Z,16.10
2023-11-01T15:16:01.249Z,16.00
2023-11-01T15:18:30.514Z,15.60
2023-11-01T15:20:57.924Z,16.30
2023-11-01T15:23:24.785Z,15.70
2023-11-01T15:25:51.470Z,16.20
2023-11-01T15:28:18.148Z,16.20
2023-11-01T15:30:44.978Z,15.70
2023-11-01T15:33:12.506Z,16.30
2023-11-01T15:35:39.848Z,15.40
2023-11-01T15:38:06.658Z,15.50
2023-11-01T15:40:34.381Z,15.60
2023-11-01T15:43:01.486Z,15.50
2023-11-01T15:45:28.298Z,15.80
2023-11-01T15:47:57.039Z,15.20
2023-11-01T15:50:23.855Z,16.50
2023-11-01T15:52:51.139Z,15.90
2023-11-01T15:55:17.855Z,15.70
2023-11-01T15:57:45.006Z,15.70
2023-11-01T16:00:12.515Z,15.30
2023-11-01T16:02:39.347Z,15.70
2023-11-01T16:05:06.270Z,15.30
2023-11-01T16:07:33.210Z,15.70
2023-11-01T16:09:59.915Z,14.90
2023-11-01T16:12:26.710Z,15.50
2023-11-01T16:14:53.422Z,15.10
2023-11-01T16:17:20.127Z,15.00
2023-11-01T16:19:46.788Z,14.90
2023-11-01T16:22:15.397Z,15.10
2023-11-01T16:24:42.381Z,15.50
2023-11-01T16:27:09.166Z,15.10
2023-11-01T16:29:37.996Z,15.50
2023-11-01T16:32:05.520Z,15.50
2023-11-01T16:34:32.464Z,15.80
2023-11-01T16:36:59.204Z,15.50
2023-11-01T16:39:25.914Z,15.40
2023-11-01T16:41:53.826Z,15.30
2023-11-01T16:44:20.664Z,15.60
2023-11-01T16:46:47.442Z,15.20
2023-11-01T16:49:14.808Z,15.30
2023-11-01T16:51:41.923Z,15.60
2023-11-01T16:54:08.664Z,15.30
2023-11-01T16:56:35.518Z,15.30
2023-11-01T16:59:05.242Z,15.20
2023-11-01T17:01:32.048Z,15.30
2023-11-01T17:03:59.242Z,15.10
2023-11-01T17:06:27.168Z,14.60
2023-11-01T17:08:55.524Z,15.10
2023-11-01T17:11:22.383Z,14.70
2023-11-01T17:13:51.014Z,15.30
2023-11-01T17:16:17.706Z,15.30
2023-11-01T17:18:44.623Z,15.40
2023-11-01T17:21:11.828Z,14.70
2023-11-01T17:23:44.609Z,14.80
2023-11-01T17:26:25.394Z,15.20
2023-11-01T17:28:53.232Z,14.90
2023-11-01T17:31:44.354Z,15.10
2023-11-01T17:34:13.149Z,15.10
2023-11-01T17:36:40.393Z,14.90
2023-11-01T17:39:08.620Z,14.70
2023-11-01T17:41:55.398Z,14.70
2023-11-01T17:44:27.571Z,14.90
2023-11-01T17:46:56.101Z,14.70
2023-11-01T17:49:41.348Z,14.40
2023-11-01T17:52:09.341Z,15.10
2023-11-01T17:54:38.953Z,14.60
2023-11-01T17:57:06.559Z,14.90
2023-11-01T17:59:37.085Z,14.80
2023-11-01T18:02:24.850Z,14.80
2023-11-01T18:04:57.499Z,14.80
2023-11-01T18:07:25.571Z,14.70
2023-11-01T18:09:53.389Z,14.60
2023-11-01T18:12:20.858Z,14.50
2023-11-01T18:14:47.676Z,15.10
2023-11-01T18:17:14.553Z,14.50
2023-11-01T18:19:44.932Z,15.10
2023-11-01T18:22:30.461Z,14.60
2023-11-01T18:24:57.139Z,14.70
2023-11-01T18:27:23.790Z,14.70
2023-11-01T18:29:50.532Z,15.10
2023-11-01T18:32:17.201Z,14.60
2023-11-01T18:34:43.870Z,14.40
2023-11-01T18:37:13.056Z,14.50
2023-11-01T18:39:40.468Z,14.60
2023-11-01T18:42:09.092Z,14.00
2023-11-01T18:44:42.065Z,13.90
2023-11-01T18:47:09.269Z,14.10
2023-11-01T18:49:54.837Z,14.70
2023-11-01T18:52:23.814Z,14.60
2023-11-01T18:54:52.284Z,14.10
2023-11-01T18:57:33.705Z,14.30
2023-11-01T19:00:01.512Z,14.20
2023-11-01T19:02:34.397Z,14.30
2023-11-01T19:05:05.012Z,14.20
2023-11-01T19:07:32.905Z,14.20
2023-11-01T19:09:59.782Z,14.30
2023-11-01T19:12:33.495Z,14.10
2023-11-01T19:15:01.311Z,14.10
2023-11-01T19:17:33.005Z,14.60
2023-11-01T19:19:59.769Z,14.60
2023-11-01T19:22:26.587Z,14.40
2023-11-01T19:24:53.251Z,14.00
2023-11-01T19:29:48.152Z,14.40
2023-11-01T19:32:14.836Z,14.20
2023-11-01T19:34:41.701Z,14.00
2023-11-01T19:37:08.462Z,14.20
2023-11-01T19:39:35.106Z,14.30
2023-11-01T19:42:01.794Z,13.90
2023-11-01T19:44:28.506Z,14.20
2023-11-01T19:46:55.369Z,14.30
2023-11-01T19:49:22.099Z,13.80
2023-11-01T19:51:48.751Z,14.00
2023-11-01T19:54:15.454Z,13.70
2023-11-01T19:56:42.236Z,14.10
2023-11-01T19:59:10.153Z,14.10
2023-11-01T20:01:36.950Z,14.00
2023-11-01T20:04:04.206Z,13.60
2023-11-01T20:06:30.996Z,13.40
2023-11-01T20:08:57.789Z,14.10
2023-11-01T20:11:24.516Z,13.80
2023-11-01T20:13:51.278Z,13.70
2023-11-01T20:16:25.044Z,13.80
2023-11-01T20:18:55.096Z,14.10
2023-11-01T20:21:22.454Z,13.90
2023-11-01T20:23:49.324Z,13.90
2023-11-01T20:26:16.729Z,14.30
2023-11-01T20:28:43.431Z,14.00
2023-11-01T20:31:10.856Z,14.10
2023-11-01T20:33:37.705Z,13.90
2023-11-01T20:36:04.893Z,13.70
2023-11-01T20:38:31.688Z,13.30
2023-11-01T20:40:58.628Z,13.50
2023-11-01T20:43:29.512Z,13.60
2023-11-01T20:45:56.232Z,13.70
2023-11-01T20:48:23.253Z,13.80
2023-11-01T20:50:50.063Z,13.70
2023-11-01T20:53:17.496Z,13.80
2023-11-01T20:55:44.745Z,13.40
2023-11-01T20:58:11.493Z,13.40
2023-11-01T21:00:38.499Z,13.10
2023-11-01T21:03:05.694Z,13.50
2023-11-01T21:05:34.691Z,13.30
2023-11-01T21:08:01.443Z,13.80
2023-11-01T21:10:29.947Z,13.60
2023-11-01T21:12:56.838Z,13.20
2023-11-01T21:15:23.692Z,13.30
2023-11-01T21:17:51.139Z,13.60
2023-11-01T21:20:18.361Z,13.00
2023-11-01T21:22:45.076Z,13.50
2023-11-01T21:25:14.041Z,13.30
2023-11-01T21:27:40.873Z,13.70
2023-11-01T21:30:08.929Z,13.00
2023-11-01T21:32:35.716Z,13.20
2023-11-01T21:35:05.483Z,12.70
2023-11-01T21:37:32.154Z,13.10
2023-11-01T21:39:59.328Z,13.20
2023-11-01T21:42:26.841Z,13.20
2023-11-01T21:44:55.118Z,13.30
2023-11-01T21:47:39.123Z,13.00
2023-11-01T21:50:14.793Z,13.00
2023-11-01T21:52:47.428Z,13.20
2023-11-01T21:55:45.061Z,12.80
2023-11-01T21:58:20.329Z,13.00
2023-11-01T22:01:11.193Z,12.80
2023-11-01T22:03:50.204Z,12.70
2023-11-01T22:06:23.242Z,12.90
2023-11-01T22:09:05.651Z,12.80
2023-11-01T22:11:35.588Z,12.50
2023-11-01T22:14:08.719Z,12.50
2023-11-01T22:16:37.743Z,12.20
2023-11-01T22:19:32.293Z,13.00
2023-11-01T22:22:12.768Z,12.30
2023-11-01T22:24:41.178Z,12.60
2023-11-01T22:27:10.272Z,12.20
2023-11-01T22:29:50.979Z,12.70
2023-11-01T22:32:22.046Z,12.40
2023-11-01T22:34:49.253Z,12.40
2023-11-01T22:37:20.752Z,12.30
2023-11-01T22:39:48.131Z,12.30
2023-11-01T22:42:35.149Z,12.70
2023-11-01T22:45:03.681Z,12.30
2023-11-01T22:47:30.980Z,12.10
2023-11-01T22:49:58.785Z,12.20
2023-11-01T22:52:25.442Z,12.10
2023-11-01T22:54:52.182Z,12.30
2023-11-01T22:57:19.947Z,12.00
2023-11-01T22:59:46.678Z,12.10
2023-11-01T23:02:16.521Z,12.00
2023-11-01T23:04:43.600Z,12.10
2023-11-01T23:07:10.839Z,12.00
2023-11-01T23:09:37.982Z,11.90
2023-11-01T23:12:05.334Z,12.10
2023-11-01T23:14:32.061Z,11.70
2023-11-01T23:16:58.766Z,11.80
2023-11-01T23:19:25.708Z,12.00
2023-11-01T23:21:52.417Z,11.90
2023-11-01T23:24:20.466Z,11.50
2023-11-01T23:26:57.132Z,11.70
2023-11-01T23:29:32.520Z,11.40
2023-11-01T23:32:01.285Z,11.50
2023-11-01T23:35:00.318Z,11.70
2023-11-01T23:37:32.821Z,11.60
2023-11-01T23:39:59.747Z,11.50
2023-11-01T23:42:32.753Z,11.60
2023-11-01T23:44:59.719Z,11.70
2023-11-01T23:47:52.777Z,11.80
2023-11-01T23:50:34.499Z,11.50
2023-11-01T23:53:03.788Z,11.80
2023-11-01T23:55:31.665Z,11.40
2023-11-01T23:58:00.331Z,11.60
